Time;durP1;ratioP1;P1;durP2;ratioP2;P2;SDS_P1;SDS_P2;PMS_P1;PMS_P2;Temp;Humidity;BMP_temperature;BMP_pressure;BME280_temperature;BME280_humidity;BME280_pressure;Samples;Min_cycle;Max_cycle;Signal;HPM_P1;HPM_P2
2022/07/17 00:00:36;;;;;;;2.10;1.80;;;15.90;99.90;;;;;;5074403;28;20493;-72
2022/07/17 00:03:03;;;;;;;1.60;1.47;;;15.90;99.90;;;;;;5080076;28;20462;-72
2022/07/17 00:05:31;;;;;;;1.53;1.27;;;15.90;99.90;;;;;;5064397;28;20493;-72
2022/07/17 00:07:58;;;;;;;4.33;2.00;;;15.80;99.90;;;;;;5073099;28;20472;-71
2022/07/17 00:10:25;;;;;;;3.83;1.77;;;15.70;99.90;;;;;;5069963;28;20536;-71
2022/07/17 00:12:52;;;;;;;2.23;1.33;;;15.70;99.90;;;;;;5074698;28;20462;-71
2022/07/17 00:15:19;;;;;;;3.93;1.40;;;15.70;99.90;;;;;;5080476;28;20458;-72
2022/07/17 00:17:46;;;;;;;12.40;4.30;;;15.50;99.90;;;;;;5077101;28;20532;-72
2022/07/17 00:20:13;;;;;;;8.70;3.60;;;15.50;99.90;;;;;;5080707;28;20490;-71
2022/07/17 00:22:42;;;;;;;3.97;1.90;;;15.50;99.90;;;;;;5069053;28;20545;-71
2022/07/17 00:25:11;;;;;;;14.33;2.53;;;15.50;99.90;;;;;;5065392;28;20468;-72
2022/07/17 00:27:38;;;;;;;6.83;2.60;;;15.50;99.90;;;;;;5068138;28;20429;-72
2022/07/17 00:30:07;;;;;;;4.73;1.93;;;15.50;99.90;;;;;;5069875;28;20468;-72
2022/07/17 00:32:34;;;;;;;9.60;1.70;;;15.40;99.90;;;;;;5067368;28;20458;-72
2022/07/17 00:35:01;;;;;;;2.80;1.73;;;15.40;99.90;;;;;;5068335;28;20458;-72
2022/07/17 00:37:28;;;;;;;6.23;4.20;;;15.40;99.90;;;;;;5073852;28;20825;-72
2022/07/17 00:39:57;;;;;;;1.80;1.20;;;15.30;99.90;;;;;;5072725;28;20468;-72
2022/07/17 00:42:23;;;;;;;3.40;2.10;;;15.30;99.90;;;;;;5068762;28;20455;-72
2022/07/17 00:44:50;;;;;;;3.50;1.87;;;15.30;99.90;;;;;;5067145;28;20473;-72
2022/07/17 00:47:19;;;;;;;2.77;1.83;;;15.30;99.90;;;;;;5072545;28;20454;-72
2022/07/17 00:49:50;;;;;;;2.13;1.70;;;15.30;99.90;;;;;;5066375;28;20474;-70
2022/07/17 00:52:18;;;;;;;3.83;2.33;;;15.30;99.90;;;;;;5069980;28;20888;-71
2022/07/17 00:54:46;;;;;;;4.03;2.63;;;15.30;99.90;;;;;;5075198;28;20503;-71
2022/07/17 00:57:16;;;;;;;3.30;1.60;;;15.20;99.90;;;;;;5071373;28;20459;-72
2022/07/17 00:59:43;;;;;;;5.93;2.57;;;15.10;99.90;;;;;;5073195;28;20483;-72
2022/07/17 01:02:13;;;;;;;4.23;1.73;;;15.20;99.90;;;;;;5073065;28;20834;-72
2022/07/17 01:04:40;;;;;;;5.43;1.87;;;15.20;99.90;;;;;;5064218;28;21050;-72
2022/07/17 01:07:08;;;;;;;3.87;1.70;;;15.20;99.90;;;;;;5074284;28;20447;-72
2022/07/17 01:09:35;;;;;;;4.57;2.00;;;15.20;99.90;;;;;;5068003;28;20464;-72
2022/07/17 01:12:02;;;;;;;6.83;1.90;;;15.20;99.90;;;;;;5074839;28;20462;-72
2022/07/17 01:14:31;;;;;;;6.17;2.30;;;15.20;99.90;;;;;;5075559;28;20520;-72
2022/07/17 01:16:57;;;;;;;3.20;2.10;;;15.20;99.90;;;;;;5072470;28;20538;-72
2022/07/17 01:19:24;;;;;;;4.70;1.80;;;15.10;99.90;;;;;;5072373;28;20474;-72
2022/07/17 01:21:52;;;;;;;5.13;1.83;;;15.00;99.90;;;;;;5069912;28;20466;-72
2022/07/17 01:24:22;;;;;;;3.47;1.50;;;15.00;99.90;;;;;;5070136;28;20444;-72
2022/07/17 01:26:49;;;;;;;2.80;1.40;;;14.90;99.90;;;;;;5070100;28;20553;-73
2022/07/17 01:29:17;;;;;;;2.70;1.53;;;14.80;99.90;;;;;;5064673;28;20878;-72
2022/07/17 01:31:44;;;;;;;2.17;1.80;;;14.70;99.90;;;;;;5067809;28;20458;-72
2022/07/17 01:34:13;;;;;;;3.13;1.70;;;14.60;99.90;;;;;;5064390;28;20977;-71
2022/07/17 01:36:40;;;;;;;1.90;1.40;;;14.60;99.90;;;;;;5073451;28;20488;-71
2022/07/17 01:39:08;;;;;;;5.37;1.57;;;14.60;99.90;;;;;;5066500;28;20457;-71
2022/07/17 01:41:35;;;;;;;2.20;1.37;;;14.60;99.90;;;;;;5067761;28;20475;-72
2022/07/17 01:44:03;;;;;;;6.77;1.70;;;14.60;99.90;;;;;;5069234;28;21009;-72
2022/07/17 01:46:31;;;;;;;3.73;2.57;;;14.60;99.90;;;;;;5068122;28;20452;-72
2022/07/17 01:48:58;;;;;;;5.43;3.10;;;14.50;99.90;;;;;;5071179;28;20506;-72
2022/07/17 01:51:25;;;;;;;4.60;1.50;;;14.50;99.90;;;;;;5067410;28;20517;-72
2022/07/17 01:53:52;;;;;;;6.83;1.97;;;14.40;99.90;;;;;;5065568;28;20465;-72
2022/07/17 01:56:21;;;;;;;3.53;1.60;;;14.30;99.90;;;;;;5075974;28;20429;-72
2022/07/17 01:58:48;;;;;;;3.70;1.63;;;14.20;99.90;;;;;;5067595;28;20524;-72
2022/07/17 02:01:15;;;;;;;2.80;1.90;;;14.20;99.90;;;;;;5068306;28;20459;-72
2022/07/17 02:03:41;;;;;;;3.00;1.67;;;14.10;99.90;;;;;;5067313;28;20462;-72
2022/07/17 02:06:10;;;;;;;4.63;1.70;;;14.10;99.90;;;;;;5073647;28;20565;-70
2022/07/17 02:08:37;;;;;;;2.17;1.57;;;14.00;99.90;;;;;;5064198;28;20440;-70
2022/07/17 02:11:04;;;;;;;4.03;2.30;;;14.00;99.90;;;;;;5067567;28;20658;-70
2022/07/17 02:13:32;;;;;;;4.60;1.67;;;14.00;99.90;;;;;;5069994;28;20462;-70
2022/07/17 02:15:59;;;;;;;4.40;1.80;;;14.00;99.90;;;;;;5067654;28;20459;-70
2022/07/17 02:18:26;;;;;;;2.50;1.30;;;14.00;99.90;;;;;;5070311;28;20642;-70
2022/07/17 02:20:53;;;;;;;3.07;1.77;;;14.00;99.90;;;;;;5068146;28;20947;-69
2022/07/17 02:23:20;;;;;;;2.57;1.87;;;14.00;99.90;;;;;;5069599;28;20452;-70
2022/07/17 02:25:47;;;;;;;11.50;2.40;;;13.90;99.90;;;;;;5069421;28;20954;-71
2022/07/17 02:28:13;;;;;;;2.37;1.90;;;13.90;99.90;;;;;;5069331;28;20458;-70
2022/07/17 02:30:42;;;;;;;2.90;1.57;;;13.90;99.90;;;;;;5063974;28;20465;-71
2022/07/17 02:33:08;;;;;;;5.00;1.80;;;13.90;99.90;;;;;;5068334;28;20433;-72
2022/07/17 02:35:35;;;;;;;2.20;1.90;;;13.90;99.90;;;;;;5068929;28;20858;-73
2022/07/17 02:38:02;;;;;;;2.90;1.57;;;13.80;99.90;;;;;;5070751;28;20493;-72
2022/07/17 02:40:29;;;;;;;6.13;1.50;;;13.90;99.90;;;;;;5069566;28;20807;-72
2022/07/17 02:42:56;;;;;;;2.37;1.30;;;13.70;99.90;;;;;;5069143;28;20458;-72
2022/07/17 02:45:25;;;;;;;2.50;1.70;;;13.70;99.90;;;;;;5071769;28;21039;-72
2022/07/17 02:47:54;;;;;;;2.97;2.10;;;13.70;99.90;;;;;;5066230;28;20436;-72
2022/07/17 02:50:22;;;;;;;2.60;1.83;;;13.80;99.90;;;;;;5068372;28;20448;-72
2022/07/17 02:52:49;;;;;;;3.23;1.57;;;13.70;99.90;;;;;;5070368;28;20978;-73
2022/07/17 02:55:17;;;;;;;1.90;1.60;;;13.60;99.90;;;;;;5070851;28;20458;-72
2022/07/17 02:57:46;;;;;;;3.57;2.07;;;13.70;99.90;;;;;;5061798;28;20435;-72
2022/07/17 03:00:15;;;;;;;2.20;1.67;;;13.70;99.90;;;;;;5067744;28;20478;-72
2022/07/17 03:02:42;;;;;;;14.97;2.67;;;13.70;99.90;;;;;;5069738;28;20756;-70
2022/07/17 03:05:11;;;;;;;2.13;1.70;;;13.70;99.90;;;;;;5068146;28;20441;-70
2022/07/17 03:07:38;;;;;;;6.37;1.83;;;13.50;99.90;;;;;;5067194;28;20837;-71
2022/07/17 03:10:06;;;;;;;2.90;1.73;;;13.50;99.90;;;;;;5065340;28;20937;-70
2022/07/17 03:12:32;;;;;;;1.60;1.30;;;13.50;99.90;;;;;;5066528;28;20432;-70
2022/07/17 03:14:59;;;;;;;2.53;1.53;;;13.50;99.90;;;;;;5064392;28;20488;-70
2022/07/17 03:17:27;;;;;;;3.90;1.70;;;13.50;99.90;;;;;;5068851;28;20450;-69
2022/07/17 03:19:53;;;;;;;1.40;1.20;;;13.50;99.90;;;;;;5067769;28;20463;-71
2022/07/17 03:22:21;;;;;;;2.20;1.50;;;13.60;99.90;;;;;;5073433;28;20453;-71
2022/07/17 03:24:48;;;;;;;2.43;1.67;;;13.60;99.90;;;;;;5073128;28;20434;-71
2022/07/17 03:27:15;;;;;;;2.60;1.80;;;13.50;99.90;;;;;;5071622;28;20466;-70
2022/07/17 03:29:42;;;;;;;2.10;1.50;;;13.50;99.90;;;;;;5065592;28;20463;-72
2022/07/17 03:32:10;;;;;;;2.37;1.80;;;13.50;99.90;;;;;;5078250;22;20556;-72
2022/07/17 03:34:40;;;;;;;4.10;2.37;;;13.50;99.90;;;;;;5066008;28;20428;-73
2022/07/17 03:37:07;;;;;;;3.63;1.57;;;13.50;99.90;;;;;;5066770;28;20462;-74
2022/07/17 03:39:35;;;;;;;10.70;2.40;;;13.50;99.90;;;;;;5067292;28;20436;-74
2022/07/17 03:42:02;;;;;;;3.90;1.33;;;13.60;99.90;;;;;;5064093;28;21300;-73
2022/07/17 03:44:29;;;;;;;1.93;1.37;;;13.50;99.90;;;;;;5046126;28;20948;-74
2022/07/17 03:46:56;;;;;;;2.20;1.37;;;13.60;99.90;;;;;;5050342;28;20455;-74
2022/07/17 03:49:24;;;;;;;3.40;1.87;;;13.50;99.90;;;;;;5059895;28;20950;-74
2022/07/17 03:51:51;;;;;;;2.87;1.50;;;13.40;99.90;;;;;;5055536;28;20457;-74
2022/07/17 03:54:18;;;;;;;3.70;2.10;;;13.30;99.90;;;;;;5047371;28;20739;-73
2022/07/17 03:56:46;;;;;;;6.07;1.90;;;13.40;99.90;;;;;;5053252;28;20455;-72
2022/07/17 03:59:13;;;;;;;4.00;1.83;;;13.40;99.90;;;;;;5050173;28;20808;-72
2022/07/17 04:01:40;;;;;;;1.57;1.47;;;13.30;99.90;;;;;;5050651;28;21199;-72
2022/07/17 04:04:07;;;;;;;1.60;1.50;;;13.30;99.90;;;;;;5058762;28;20521;-72
2022/07/17 04:06:34;;;;;;;2.80;2.27;;;13.30;99.90;;;;;;5056728;28;20456;-73
2022/07/17 04:09:01;;;;;;;1.53;1.40;;;13.30;99.90;;;;;;5057396;28;20447;-73
2022/07/17 04:11:28;;;;;;;2.43;1.50;;;13.30;99.90;;;;;;5057526;28;20875;-73
2022/07/17 04:13:56;;;;;;;4.03;1.40;;;13.30;99.90;;;;;;5054842;28;20466;-73
2022/07/17 04:16:23;;;;;;;5.20;1.83;;;13.30;99.90;;;;;;5053566;28;20848;-73
2022/07/17 04:18:49;;;;;;;2.80;1.57;;;13.40;99.90;;;;;;5061261;28;20574;-73
2022/07/17 04:21:16;;;;;;;4.33;2.37;;;13.40;99.90;;;;;;5059423;28;20474;-73
2022/07/17 04:23:43;;;;;;;1.80;1.43;;;13.50;99.90;;;;;;5055634;28;20486;-73
2022/07/17 04:26:10;;;;;;;3.80;2.27;;;13.50;99.90;;;;;;5056651;28;20425;-73
2022/07/17 04:28:37;;;;;;;3.83;1.63;;;13.50;99.90;;;;;;5050110;28;20464;-73
2022/07/17 04:31:05;;;;;;;2.27;1.60;;;13.60;99.90;;;;;;5050907;28;20438;-73
2022/07/17 04:33:32;;;;;;;2.93;1.30;;;13.60;99.90;;;;;;5056170;28;20468;-73
2022/07/17 04:35:59;;;;;;;3.10;2.20;;;13.60;99.90;;;;;;5054058;28;20431;-73
2022/07/17 04:38:26;;;;;;;1.63;1.47;;;13.70;99.90;;;;;;5060030;28;20426;-73
2022/07/17 04:40:56;;;;;;;2.33;2.00;;;13.70;99.90;;;;;;5055389;28;20460;-73
2022/07/17 04:43:24;;;;;;;2.47;1.80;;;13.70;99.90;;;;;;5057481;28;20480;-73
2022/07/17 04:45:50;;;;;;;2.83;2.10;;;13.70;99.90;;;;;;5050680;28;20435;-72
2022/07/17 04:48:19;;;;;;;2.17;1.73;;;13.70;99.90;;;;;;5060149;28;20462;-72
2022/07/17 04:50:45;;;;;;;5.83;1.80;;;13.70;99.90;;;;;;5058054;28;20458;-72
2022/07/17 04:53:12;;;;;;;3.50;3.20;;;13.80;99.90;;;;;;5055942;28;20456;-72
2022/07/17 04:55:39;;;;;;;3.77;1.70;;;13.90;99.90;;;;;;5056295;28;20438;-73
2022/07/17 04:58:06;;;;;;;3.50;1.83;;;13.90;99.90;;;;;;5053187;28;20552;-72
2022/07/17 05:00:33;;;;;;;2.83;2.20;;;13.80;99.90;;;;;;5046666;28;20433;-73
2022/07/17 05:03:00;;;;;;;3.80;2.00;;;13.60;99.90;;;;;;5059952;28;20498;-72
2022/07/17 05:05:28;;;;;;;6.00;1.50;;;13.30;99.90;;;;;;5052771;28;20476;-73
2022/07/17 05:07:55;;;;;;;6.77;2.20;;;13.50;99.90;;;;;;5053157;28;20717;-72
2022/07/17 05:10:22;;;;;;;2.37;1.67;;;13.90;99.90;;;;;;5056968;28;20762;-73
2022/07/17 05:12:48;;;;;;;4.00;2.40;;;14.30;99.90;;;;;;5049539;28;21024;-73
2022/07/17 05:15:15;;;;;;;4.80;2.50;;;14.70;99.90;;;;;;5058407;28;20455;-72
2022/07/17 05:17:42;;;;;;;3.60;1.60;;;15.00;99.90;;;;;;5053191;28;20461;-73
2022/07/17 05:20:09;;;;;;;5.23;2.33;;;15.50;99.90;;;;;;5055199;28;20468;-73
2022/07/17 05:22:37;;;;;;;4.97;1.80;;;15.90;99.90;;;;;;5052092;28;21001;-73
2022/07/17 05:25:05;;;;;;;2.43;2.10;;;16.50;99.90;;;;;;5044448;28;20468;-73
2022/07/17 05:27:32;;;;;;;6.10;2.00;;;16.70;99.90;;;;;;5055220;28;20463;-72
2022/07/17 05:29:59;;;;;;;5.33;1.80;;;16.80;99.90;;;;;;5049795;28;20967;-74
2022/07/17 05:32:26;;;;;;;2.03;1.83;;;17.20;99.90;;;;;;5053047;28;20483;-74
2022/07/17 05:34:53;;;;;;;3.03;2.07;;;17.50;99.90;;;;;;5055259;28;20490;-73
2022/07/17 05:37:20;;;;;;;7.13;2.30;;;17.60;99.90;;;;;;5050176;28;21092;-72
2022/07/17 05:39:48;;;;;;;2.27;1.77;;;17.70;99.90;;;;;;5057948;28;20454;-72
2022/07/17 05:42:15;;;;;;;7.13;2.10;;;17.70;99.90;;;;;;5050227;28;21070;-72
2022/07/17 05:44:42;;;;;;;3.20;1.80;;;17.80;99.90;;;;;;5049440;28;21052;-73
2022/07/17 05:47:09;;;;;;;4.43;2.17;;;18.30;99.90;;;;;;5055863;28;20660;-73
2022/07/17 05:49:35;;;;;;;3.30;2.07;;;18.30;99.90;;;;;;5055935;28;21093;-73
2022/07/17 05:52:02;;;;;;;2.70;1.70;;;18.30;99.90;;;;;;5054282;28;21109;-72
2022/07/17 05:54:29;;;;;;;4.00;2.50;;;18.10;99.90;;;;;;5053040;28;20968;-72
2022/07/17 05:56:57;;;;;;;3.40;2.27;;;18.30;99.90;;;;;;5047988;28;20466;-73
2022/07/17 05:59:24;;;;;;;3.10;2.37;;;18.40;99.90;;;;;;5052998;28;21265;-73
2022/07/17 06:01:51;;;;;;;4.63;2.13;;;18.80;99.90;;;;;;5055985;28;20497;-73
2022/07/17 06:04:18;;;;;;;5.17;2.37;;;19.00;99.90;;;;;;5052173;28;20430;-74
2022/07/17 06:06:45;;;;;;;4.43;2.40;;;19.00;99.90;;;;;;5052136;28;21232;-74
2022/07/17 06:09:12;;;;;;;3.40;2.53;;;19.30;99.90;;;;;;5054350;28;20447;-74
2022/07/17 06:11:38;;;;;;;1.93;1.70;;;19.80;99.90;;;;;;5060486;28;20451;-73
2022/07/17 06:14:07;;;;;;;3.47;2.10;;;19.70;99.90;;;;;;5060740;28;20459;-77
2022/07/17 06:16:34;;;;;;;2.27;2.00;;;19.70;99.90;;;;;;5057494;28;20459;-74
2022/07/17 06:19:00;;;;;;;3.50;1.80;;;19.80;99.90;;;;;;5063537;28;20514;-74
2022/07/17 06:21:27;;;;;;;4.33;2.17;;;20.20;99.90;;;;;;5057756;28;20561;-73
2022/07/17 06:23:54;;;;;;;7.20;2.53;;;20.50;99.90;;;;;;5059690;28;20858;-74
2022/07/17 06:26:21;;;;;;;5.53;2.47;;;20.60;99.90;;;;;;5059516;28;20467;-73
2022/07/17 06:28:48;;;;;;;2.47;2.13;;;20.70;99.90;;;;;;5054877;28;22632;-73
2022/07/17 06:31:16;;;;;;;3.50;2.03;;;20.50;99.90;;;;;;5057328;28;21211;-74
2022/07/17 06:33:43;;;;;;;10.53;2.27;;;20.50;99.90;;;;;;5058099;28;20614;-74
2022/07/17 06:36:10;;;;;;;3.57;2.60;;;21.00;99.90;;;;;;5062681;28;20459;-73
2022/07/17 06:38:37;;;;;;;4.63;2.03;;;21.80;99.90;;;;;;5057290;28;20471;-74
2022/07/17 06:41:04;;;;;;;8.07;2.43;;;21.80;99.90;;;;;;5059145;28;20470;-73
2022/07/17 06:43:31;;;;;;;6.00;2.50;;;21.50;99.90;;;;;;5057653;28;20578;-73
2022/07/17 06:45:57;;;;;;;4.63;2.10;;;21.20;99.90;;;;;;5060458;28;21443;-73
2022/07/17 06:48:26;;;;;;;2.50;2.10;;;20.80;99.90;;;;;;5059766;28;20457;-73
2022/07/17 06:50:53;;;;;;;4.73;2.40;;;20.80;99.90;;;;;;5059513;28;20459;-72
2022/07/17 06:53:19;;;;;;;1.67;1.57;;;20.90;99.90;;;;;;5058720;28;20863;-72
2022/07/17 06:55:46;;;;;;;7.13;2.50;;;21.30;99.90;;;;;;5058029;28;20470;-73
2022/07/17 06:58:14;;;;;;;2.40;1.40;;;21.40;99.90;;;;;;5052768;28;20824;-73
2022/07/17 07:00:41;;;;;;;3.70;1.70;;;22.20;99.90;;;;;;5051281;28;20491;-72
2022/07/17 07:03:08;;;;;;;7.73;2.60;;;22.90;99.90;;;;;;5052275;28;20490;-72
2022/07/17 07:05:36;;;;;;;2.67;1.83;;;23.10;99.90;;;;;;5048556;28;21324;-73
2022/07/17 07:08:05;;;;;;;3.73;1.80;;;23.50;99.90;;;;;;5053922;28;20574;-73
2022/07/17 07:10:32;;;;;;;2.63;1.50;;;23.60;99.90;;;;;;5055747;28;20511;-73
2022/07/17 07:12:58;;;;;;;5.10;3.33;;;24.30;99.90;;;;;;5063696;28;20463;-74
2022/07/17 07:15:25;;;;;;;5.87;1.70;;;24.60;99.90;;;;;;5066094;28;20849;-74
2022/07/17 07:17:52;;;;;;;2.83;1.87;;;24.60;99.50;;;;;;5066226;28;20958;-74
2022/07/17 07:20:22;;;;;;;2.20;1.43;;;23.80;99.90;;;;;;5064046;28;20451;-73
2022/07/17 07:22:50;;;;;;;4.13;1.70;;;23.80;99.90;;;;;;5068043;28;20998;-73
2022/07/17 07:25:17;;;;;;;2.20;1.67;;;24.00;99.90;;;;;;5070226;28;20865;-73
2022/07/17 07:27:44;;;;;;;2.63;1.40;;;24.10;99.70;;;;;;5064461;28;20968;-73
2022/07/17 07:30:11;;;;;;;2.73;1.53;;;24.50;99.00;;;;;;5062944;28;20447;-73
2022/07/17 07:32:38;;;;;;;5.13;2.00;;;24.20;99.00;;;;;;5068670;28;20604;-73
2022/07/17 07:35:06;;;;;;;3.23;1.63;;;24.40;99.30;;;;;;5063794;28;20458;-74
2022/07/17 07:37:33;;;;;;;7.63;2.13;;;25.20;98.60;;;;;;5066151;28;20816;-74
2022/07/17 07:40:02;;;;;;;4.50;1.70;;;25.90;97.40;;;;;;5063749;28;20615;-74
2022/07/17 07:42:29;;;;;;;4.30;1.77;;;26.10;95.80;;;;;;5068344;28;20552;-74
2022/07/17 07:44:56;;;;;;;4.30;1.93;;;26.10;95.70;;;;;;5068030;28;20550;-74
2022/07/17 07:47:23;;;;;;;3.87;1.40;;;26.20;94.30;;;;;;5065747;28;20934;-73
2022/07/17 07:49:49;;;;;;;7.93;2.33;;;26.30;93.80;;;;;;5068243;28;20863;-74
2022/07/17 07:52:16;;;;;;;3.40;1.60;;;25.80;94.80;;;;;;5068024;28;20477;-74
2022/07/17 07:54:43;;;;;;;4.70;1.90;;;26.40;93.30;;;;;;5070091;28;21078;-74
2022/07/17 07:57:11;;;;;;;10.60;1.60;;;27.00;92.30;;;;;;5070060;28;20721;-74
2022/07/17 07:59:38;;;;;;;4.43;1.60;;;27.50;91.50;;;;;;5062245;28;20840;-74
2022/07/17 08:02:05;;;;;;;2.20;1.43;;;27.70;88.90;;;;;;5071493;28;20489;-74
2022/07/17 08:04:32;;;;;;;3.10;1.80;;;27.30;90.00;;;;;;5068501;28;20435;-74
2022/07/17 08:06:59;;;;;;;6.93;1.50;;;27.70;89.50;;;;;;5073127;28;20447;-74
2022/07/17 08:09:26;;;;;;;4.30;1.63;;;27.90;87.60;;;;;;5069633;28;20539;-74
2022/07/17 08:11:53;;;;;;;2.07;1.37;;;28.10;87.90;;;;;;5070573;28;20976;-74
2022/07/17 08:14:21;;;;;;;6.53;1.47;;;29.00;84.50;;;;;;5066348;28;20439;-75
2022/07/17 08:16:48;;;;;;;3.60;1.67;;;28.80;83.40;;;;;;5064222;28;20462;-74
2022/07/17 08:19:15;;;;;;;3.00;1.90;;;27.10;83.70;;;;;;5070525;28;20757;-74
2022/07/17 08:21:42;;;;;;;2.00;1.60;;;26.40;85.80;;;;;;5065601;28;20445;-74
2022/07/17 08:24:08;;;;;;;3.20;1.50;;;26.50;89.70;;;;;;5069677;28;20828;-74
2022/07/17 08:26:35;;;;;;;3.13;1.70;;;27.90;85.10;;;;;;5066319;28;20877;-74
2022/07/17 08:29:02;;;;;;;3.37;1.83;;;28.70;81.70;;;;;;5068077;28;20440;-74
2022/07/17 08:31:31;;;;;;;6.63;2.30;;;29.20;81.70;;;;;;5067711;28;20440;-74
2022/07/17 08:33:57;;;;;;;2.30;2.07;;;29.50;79.40;;;;;;5064440;28;20503;-74
2022/07/17 08:36:24;;;;;;;6.53;2.80;;;29.70;78.20;;;;;;5071759;28;20503;-74
2022/07/17 08:38:51;;;;;;;3.50;1.90;;;29.40;75.70;;;;;;5066393;28;21010;-74
2022/07/17 08:41:22;;;;;;;3.70;2.33;;;28.50;76.50;;;;;;5068420;28;20441;-74
2022/07/17 08:43:50;;;;;;;4.07;2.50;;;28.70;78.30;;;;;;5069570;28;20495;-74
2022/07/17 08:46:17;;;;;;;5.00;2.00;;;29.40;77.10;;;;;;5052366;28;20523;-74
2022/07/17 08:48:47;;;;;;;3.00;1.83;;;29.60;73.80;;;;;;5059025;28;20853;-74
2022/07/17 08:51:17;;;;;;;4.47;1.50;;;30.20;71.40;;;;;;5066810;28;20523;-74
2022/07/17 08:53:44;;;;;;;3.60;1.60;;;30.40;71.60;;;;;;5064414;28;20538;-74
2022/07/17 08:56:11;;;;;;;4.63;1.53;;;30.40;70.50;;;;;;5065932;28;20487;-72
2022/07/17 08:58:38;;;;;;;1.87;0.97;;;30.50;68.90;;;;;;5068577;28;20653;-72
2022/07/17 09:01:06;;;;;;;2.50;1.33;;;30.60;67.80;;;;;;5074899;28;20512;-74
2022/07/17 09:03:33;;;;;;;11.33;1.57;;;30.60;65.70;;;;;;5080038;28;20489;-73
2022/07/17 09:06:01;;;;;;;6.93;1.70;;;30.50;66.70;;;;;;5070885;28;20472;-73
2022/07/17 09:08:32;;;;;;;3.90;3.60;;;31.00;66.10;;;;;;5070369;28;20459;-73
2022/07/17 09:10:59;;;;;;;2.70;1.70;;;30.70;66.20;;;;;;5063469;28;20458;-73
2022/07/17 09:13:28;;;;;;;4.93;1.70;;;30.30;65.40;;;;;;5061293;28;20503;-73
2022/07/17 09:15:58;;;;;;;3.00;1.40;;;30.20;64.90;;;;;;5058448;28;20553;-73
2022/07/17 09:18:25;;;;;;;4.80;1.90;;;31.20;62.90;;;;;;5056701;28;20464;-73
2022/07/17 09:20:54;;;;;;;3.87;2.10;;;31.50;62.70;;;;;;5065265;28;20471;-74
2022/07/17 09:23:23;;;;;;;3.60;1.37;;;31.70;63.30;;;;;;5062565;28;20476;-73
2022/07/17 09:25:52;;;;;;;3.33;1.13;;;30.60;61.50;;;;;;5061036;28;20524;-73
2022/07/17 09:28:20;;;;;;;4.97;2.10;;;31.10;61.60;;;;;;5059831;28;20596;-73
2022/07/17 09:30:49;;;;;;;2.17;1.30;;;31.20;62.40;;;;;;5052932;28;21023;-73
2022/07/17 09:33:18;;;;;;;4.20;1.40;;;31.50;62.20;;;;;;5087867;22;20540;-75
2022/07/17 09:35:52;;;;;;;4.23;1.93;;;32.20;61.40;;;;;;5096599;28;20993;-76
2022/07/17 09:38:35;;;;;;;5.30;1.87;;;32.50;58.60;;;;;;5095684;27;21165;-76
2022/07/17 09:41:11;;;;;;;3.73;1.50;;;32.60;58.70;;;;;;5097856;27;21103;-76
2022/07/17 09:43:47;;;;;;;4.67;2.23;;;32.50;57.60;;;;;;5104224;27;20621;-76
2022/07/17 09:46:24;;;;;;;1.83;1.30;;;32.90;57.00;;;;;;5118674;27;20494;-76
2022/07/17 09:48:52;;;;;;;2.77;1.33;;;33.00;55.90;;;;;;5113739;27;20475;-76
2022/07/17 09:51:21;;;;;;;3.77;1.30;;;33.20;55.40;;;;;;5120371;27;20454;-74
2022/07/17 09:53:57;;;;;;;4.70;1.60;;;32.10;56.10;;;;;;5116338;27;20570;-75
2022/07/17 09:56:33;;;;;;;3.63;2.07;;;31.90;55.80;;;;;;5118672;27;20514;-75
2022/07/17 09:59:04;;;;;;;3.80;2.67;;;31.60;56.80;;;;;;5115145;27;20443;-75
2022/07/17 10:01:32;;;;;;;3.30;1.30;;;32.50;56.00;;;;;;5105454;27;20620;-75
2022/07/17 10:04:00;;;;;;;2.70;1.30;;;33.40;54.90;;;;;;5105164;27;20468;-75
2022/07/17 10:06:30;;;;;;;2.83;1.23;;;33.40;53.70;;;;;;5114792;27;20533;-76
2022/07/17 10:08:58;;;;;;;3.10;1.30;;;32.90;53.50;;;;;;5119916;27;20459;-75
2022/07/17 10:11:32;;;;;;;3.97;1.50;;;32.20;54.20;;;;;;5120023;27;20514;-75
2022/07/17 10:14:05;;;;;;;2.50;1.10;;;32.20;54.20;;;;;;5116891;27;20520;-75
2022/07/17 10:19:18;;;;;;;2.43;1.80;;;32.00;54.00;;;;;;5115803;27;21066;-76
2022/07/17 10:21:56;;;;;;;2.37;1.10;;;32.20;53.10;;;;;;5118379;27;20481;-75
2022/07/17 10:24:29;;;;;;;2.83;1.80;;;32.20;53.80;;;;;;5115606;27;20486;-74
2022/07/17 10:26:57;;;;;;;4.90;1.80;;;32.90;52.60;;;;;;5111492;27;20530;-75
2022/07/17 10:29:31;;;;;;;2.57;1.10;;;33.40;51.20;;;;;;5104979;27;20477;-76
2022/07/17 10:32:01;;;;;;;1.80;1.10;;;33.40;50.80;;;;;;5109704;27;27278;-75
2022/07/17 10:34:45;;;;;;;5.90;1.37;;;33.30;51.10;;;;;;5111682;27;20599;-75
2022/07/17 10:37:28;;;;;;;3.03;1.33;;;33.10;49.40;;;;;;5103255;27;21099;-75
2022/07/17 10:40:16;;;;;;;1.47;1.10;;;32.20;51.80;;;;;;5110437;27;20546;-75
2022/07/17 10:43:02;;;;;;;2.60;1.37;;;32.80;52.30;;;;;;5115655;27;21034;-76
2022/07/17 10:45:35;;;;;;;3.83;1.40;;;32.90;50.10;;;;;;5110568;27;20452;-75
2022/07/17 10:48:06;;;;;;;3.40;1.30;;;32.40;50.70;;;;;;5106655;27;20460;-76
2022/07/17 10:50:35;;;;;;;2.33;1.60;;;32.30;50.70;;;;;;5108982;27;20560;-74
2022/07/17 10:53:16;;;;;;;3.47;1.80;;;33.10;51.00;;;;;;5107334;27;20514;-75
2022/07/17 10:55:51;;;;;;;2.63;1.33;;;34.50;51.20;;;;;;5104959;27;20449;-76
2022/07/17 10:58:21;;;;;;;2.27;1.50;;;34.40;49.10;;;;;;5104180;27;20452;-76
2022/07/17 11:01:16;;;;;;;1.57;1.37;;;34.10;48.90;;;;;;5110532;27;20464;-76
2022/07/17 11:03:45;;;;;;;4.40;1.70;;;34.20;48.60;;;;;;5077437;27;20499;-76
2022/07/17 11:06:20;;;;;;;3.90;1.63;;;34.50;49.20;;;;;;5109534;27;20478;-76
2022/07/17 11:08:52;;;;;;;2.50;1.60;;;34.50;48.20;;;;;;5106366;27;20488;-75
2022/07/17 11:11:35;;;;;;;2.50;1.60;;;34.40;48.60;;;;;;5106442;27;22729;-77
2022/07/17 11:14:10;;;;;;;1.90;1.53;;;34.10;48.50;;;;;;5116310;27;20487;-77
2022/07/17 11:16:43;;;;;;;4.13;1.50;;;34.50;48.40;;;;;;5118088;27;20444;-76
2022/07/17 11:19:11;;;;;;;2.10;1.17;;;34.10;47.80;;;;;;5111325;27;21141;-73
2022/07/17 11:21:48;;;;;;;2.17;1.40;;;33.80;48.20;;;;;;5116328;27;20487;-75
2022/07/17 11:24:15;;;;;;;1.90;1.40;;;34.50;46.90;;;;;;5114106;27;20611;-75
2022/07/17 11:26:45;;;;;;;4.63;1.50;;;34.80;46.30;;;;;;5116982;27;20458;-76
2022/07/17 11:29:15;;;;;;;1.97;1.80;;;34.10;46.40;;;;;;5112105;27;20538;-75
2022/07/17 11:31:45;;;;;;;3.63;1.90;;;34.70;46.70;;;;;;5108990;27;20468;-75
2022/07/17 11:34:12;;;;;;;3.23;2.00;;;34.00;46.40;;;;;;5109969;27;21010;-76
2022/07/17 11:36:42;;;;;;;1.53;1.20;;;34.70;44.90;;;;;;5111078;27;20476;-75
2022/07/17 11:39:11;;;;;;;6.53;1.40;;;35.10;45.50;;;;;;5110225;27;20463;-74
2022/07/17 11:41:43;;;;;;;3.20;1.30;;;35.60;44.80;;;;;;5106745;27;20476;-76
2022/07/17 11:44:17;;;;;;;3.20;1.60;;;36.20;45.30;;;;;;5111659;27;20477;-76
2022/07/17 11:46:52;;;;;;;3.53;1.37;;;37.10;43.90;;;;;;5118099;27;21058;-76
2022/07/17 11:49:28;;;;;;;3.63;1.90;;;37.10;43.90;;;;;;5105810;27;20551;-75
2022/07/17 11:51:57;;;;;;;2.33;1.60;;;36.80;43.50;;;;;;5111848;27;20481;-75
2022/07/17 11:54:24;;;;;;;1.40;0.90;;;35.80;43.70;;;;;;5115296;27;20849;-76
2022/07/17 11:57:01;;;;;;;3.47;1.20;;;35.40;44.20;;;;;;5124666;27;20444;-76
2022/07/17 11:59:32;;;;;;;3.87;1.20;;;35.20;44.90;;;;;;5112655;27;20476;-75
2022/07/17 12:02:10;;;;;;;2.57;1.30;;;35.00;43.90;;;;;;5115287;27;20627;-76
2022/07/17 12:04:38;;;;;;;3.53;1.10;;;35.00;43.90;;;;;;5110255;27;20576;-75
2022/07/17 12:07:07;;;;;;;1.70;1.40;;;35.30;42.90;;;;;;5116133;27;20536;-75
2022/07/17 12:09:35;;;;;;;2.73;1.30;;;35.00;43.80;;;;;;5117613;27;20480;-75
2022/07/17 12:12:04;;;;;;;2.50;1.13;;;35.60;43.70;;;;;;5118145;27;20579;-75
2022/07/17 12:14:53;;;;;;;2.43;1.10;;;35.80;43.50;;;;;;5122424;27;20987;-75
2022/07/17 12:17:26;;;;;;;3.90;1.00;;;35.70;42.30;;;;;;5124023;27;20444;-75
2022/07/17 12:19:55;;;;;;;3.20;1.57;;;35.90;43.40;;;;;;5121170;27;20488;-74
2022/07/17 12:22:23;;;;;;;1.83;1.33;;;35.50;42.10;;;;;;5121249;27;20475;-74
2022/07/17 12:24:51;;;;;;;1.20;0.93;;;34.60;43.00;;;;;;5119301;27;20996;-75
2022/07/17 12:27:18;;;;;;;9.20;1.30;;;34.70;43.80;;;;;;5118025;27;20457;-75
2022/07/17 12:29:54;;;;;;;2.20;1.17;;;34.80;43.50;;;;;;5114914;27;20507;-74
2022/07/17 12:32:22;;;;;;;2.47;1.33;;;34.70;42.80;;;;;;5122464;27;20991;-74
2022/07/17 12:34:50;;;;;;;1.90;1.10;;;34.70;43.20;;;;;;5115569;27;20487;-75
2022/07/17 12:37:18;;;;;;;2.13;1.37;;;35.60;43.20;;;;;;5114365;27;20464;-75
2022/07/17 12:39:46;;;;;;;2.40;1.43;;;36.30;42.20;;;;;;5105033;27;20832;-75
2022/07/17 12:42:14;;;;;;;3.43;1.13;;;35.30;41.60;;;;;;5113207;27;20484;-75
2022/07/17 12:44:41;;;;;;;2.03;1.27;;;36.40;42.00;;;;;;5114806;27;20843;-75
2022/07/17 12:47:10;;;;;;;3.63;1.37;;;36.70;41.30;;;;;;5112731;27;24897;-75
2022/07/17 12:49:37;;;;;;;1.80;1.30;;;37.10;41.30;;;;;;5117375;27;20818;-75
2022/07/17 12:52:04;;;;;;;1.63;1.00;;;37.10;41.80;;;;;;5111205;27;20461;-75
2022/07/17 12:54:31;;;;;;;3.77;1.73;;;37.00;41.20;;;;;;5108672;27;20607;-75